createdAt,value
2022-08-31T00:00:38.626Z,23.50
2022-08-31T00:03:58.670Z,23.27
2022-08-31T00:07:00.216Z,23.45
2022-08-31T00:10:14.186Z,23.42
2022-08-31T00:13:16.425Z,23.54
2022-08-31T00:16:19.554Z,23.59
2022-08-31T00:19:21.302Z,23.62
2022-08-31T00:22:22.739Z,23.56
2022-08-31T00:25:24.411Z,23.54
2022-08-31T00:28:26.019Z,23.61
2022-08-31T00:31:27.587Z,23.40
2022-08-31T00:34:29.162Z,23.42
2022-08-31T00:37:30.601Z,23.53
2022-08-31T00:40:33.160Z,23.48
2022-08-31T00:43:47.918Z,23.49
2022-08-31T00:46:49.440Z,23.40
2022-08-31T00:49:52.514Z,23.47
2022-08-31T00:52:57.840Z,23.46
2022-08-31T00:55:59.548Z,23.48
2022-08-31T00:59:01.652Z,23.44
2022-08-31T01:02:04.450Z,23.48
2022-08-31T01:05:06.920Z,23.52
2022-08-31T01:08:08.953Z,23.51
2022-08-31T01:11:10.675Z,23.35
2022-08-31T01:14:12.606Z,23.34
2022-08-31T01:17:15.103Z,23.38
2022-08-31T01:20:31.542Z,23.24
2022-08-31T01:23:38.725Z,23.26
2022-08-31T01:26:40.728Z,23.20
2022-08-31T01:29:42.509Z,23.37
2022-08-31T01:32:43.965Z,23.43
2022-08-31T01:35:45.681Z,23.42
2022-08-31T01:38:52.878Z,23.27
2022-08-31T01:41:54.864Z,23.30
2022-08-31T01:44:56.338Z,23.31
2022-08-31T01:48:12.344Z,23.11
2022-08-31T01:51:17.398Z,23.07
2022-08-31T01:54:19.509Z,22.98
2022-08-31T01:57:21.807Z,22.93
2022-08-31T02:00:36.222Z,22.78
2022-08-31T02:03:37.719Z,22.71
2022-08-31T02:06:42.187Z,22.64
2022-08-31T02:09:43.623Z,22.47
2022-08-31T02:12:45.034Z,22.39
2022-08-31T02:15:46.580Z,22.48
2022-08-31T02:18:48.112Z,22.54
2022-08-31T02:21:49.539Z,22.45
2022-08-31T02:24:51.054Z,22.57
2022-08-31T02:27:52.481Z,22.50
2022-08-31T02:30:54.069Z,22.56
2022-08-31T02:33:55.564Z,22.55
2022-08-31T02:36:57.176Z,22.55
2022-08-31T02:39:59.277Z,22.55
2022-08-31T02:43:01.409Z,22.42
2022-08-31T02:46:03.317Z,22.36
2022-08-31T02:49:04.840Z,22.42
2022-08-31T02:52:06.387Z,22.34
2022-08-31T02:55:07.955Z,22.22
2022-08-31T02:58:11.169Z,22.17
2022-08-31T03:01:12.682Z,22.09
2022-08-31T03:04:14.288Z,22.08
2022-08-31T03:07:15.777Z,22.14
2022-08-31T03:10:21.735Z,22.10
2022-08-31T03:13:58.466Z,22.05
2022-08-31T03:17:00.435Z,21.93
2022-08-31T03:20:05.534Z,21.94
2022-08-31T03:23:07.047Z,21.89
2022-08-31T03:26:10.137Z,21.95
2022-08-31T03:29:13.312Z,21.84
2022-08-31T03:32:14.763Z,21.79
2022-08-31T03:35:18.009Z,21.81
2022-08-31T03:38:20.466Z,21.77
2022-08-31T03:41:24.986Z,21.75
2022-08-31T03:44:26.506Z,21.69
2022-08-31T03:47:28.362Z,21.57
2022-08-31T03:50:30.010Z,21.61
2022-08-31T03:53:31.621Z,21.49
2022-08-31T03:56:33.248Z,21.28
2022-08-31T03:59:34.828Z,21.25
2022-08-31T04:02:39.544Z,21.41
2022-08-31T04:05:44.225Z,21.40
2022-08-31T04:08:45.715Z,21.44
2022-08-31T04:11:47.129Z,21.19
2022-08-31T04:14:48.662Z,21.30
2022-08-31T04:17:55.820Z,21.21
2022-08-31T04:20:59.041Z,21.30
2022-08-31T04:24:01.594Z,21.29
2022-08-31T04:27:03.705Z,21.28
2022-08-31T04:30:07.633Z,21.09
2022-08-31T04:33:09.741Z,21.04
2022-08-31T04:36:15.114Z,20.97
2022-08-31T04:39:16.706Z,20.95
2022-08-31T04:42:18.157Z,20.90
2022-08-31T04:45:19.630Z,20.89
2022-08-31T04:48:21.098Z,20.86
2022-08-31T04:51:26.140Z,20.86
2022-08-31T04:54:27.660Z,20.86
2022-08-31T04:57:31.343Z,20.84
2022-08-31T05:00:32.802Z,20.90
2022-08-31T05:03:34.272Z,20.96
2022-08-31T05:06:39.358Z,20.97
2022-08-31T05:09:40.931Z,20.89
2022-08-31T05:12:44.337Z,20.88
2022-08-31T05:15:45.813Z,20.88
2022-08-31T05:18:49.294Z,20.74
2022-08-31T05:21:50.807Z,20.82
2022-08-31T05:24:52.311Z,20.79
2022-08-31T05:27:54.840Z,20.79
2022-08-31T05:30:57.851Z,20.92
2022-08-31T05:34:00.682Z,21.03
2022-08-31T05:37:02.339Z,20.97
2022-08-31T05:40:04.475Z,20.89
2022-08-31T05:43:06.107Z,21.01
2022-08-31T05:46:10.548Z,20.98
2022-08-31T05:49:12.173Z,20.90
2022-08-31T05:52:13.909Z,21.04
2022-08-31T05:55:16.317Z,21.08
2022-08-31T05:58:17.801Z,21.12
2022-08-31T06:01:23.970Z,21.01
2022-08-31T06:04:26.730Z,20.97
2022-08-31T06:07:28.606Z,20.95
2022-08-31T06:10:32.946Z,20.94
2022-08-31T06:13:34.349Z,20.81
2022-08-31T06:16:37.229Z,20.74
2022-08-31T06:19:39.162Z,20.69
2022-08-31T06:22:46.175Z,20.70
2022-08-31T06:25:47.629Z,20.85
2022-08-31T06:28:52.004Z,20.90
2022-08-31T06:31:53.757Z,20.93
2022-08-31T06:34:55.334Z,20.83
2022-08-31T06:37:56.859Z,20.77
2022-08-31T06:40:58.290Z,20.79
2022-08-31T06:44:00.778Z,20.88
2022-08-31T06:47:03.016Z,20.73
2022-08-31T06:50:05.036Z,20.13
2022-08-31T06:53:06.475Z,19.16
2022-08-31T06:56:16.505Z,18.78
2022-08-31T06:59:26.434Z,18.55
2022-08-31T07:02:29.840Z,18.09
2022-08-31T07:05:31.285Z,17.84
2022-08-31T07:08:32.842Z,17.71
2022-08-31T07:11:37.468Z,17.74
2022-08-31T07:14:40.511Z,17.68
2022-08-31T07:17:42.174Z,17.71
2022-08-31T07:20:43.642Z,17.79
2022-08-31T07:23:47.176Z,17.76
2022-08-31T07:26:54.406Z,17.92
2022-08-31T07:29:55.873Z,17.73
2022-08-31T07:32:57.307Z,17.70
2022-08-31T07:35:58.742Z,17.57
2022-08-31T07:39:18.944Z,17.57
2022-08-31T07:42:29.214Z,17.55
2022-08-31T07:45:34.465Z,17.53
2022-08-31T07:48:39.374Z,17.27
2022-08-31T07:51:50.180Z,17.43
2022-08-31T07:54:54.127Z,17.52
2022-08-31T07:57:56.768Z,17.74
2022-08-31T08:00:59.881Z,17.73
2022-08-31T08:04:02.304Z,17.76
2022-08-31T08:07:06.032Z,17.93
2022-08-31T08:10:14.004Z,17.66
2022-08-31T08:13:18.471Z,17.60
2022-08-31T08:16:20.863Z,17.70
2022-08-31T08:19:23.264Z,17.66
2022-08-31T08:22:41.903Z,17.64
2022-08-31T08:25:47.321Z,17.64
2022-08-31T08:28:50.253Z,17.58
2022-08-31T08:31:56.537Z,17.64
2022-08-31T08:34:58.438Z,17.78
2022-08-31T08:38:03.333Z,17.85
2022-08-31T08:41:14.810Z,17.54
2022-08-31T08:44:18.457Z,17.57
2022-08-31T08:47:24.775Z,17.53
2022-08-31T08:50:28.256Z,17.81
2022-08-31T08:53:32.125Z,17.82
2022-08-31T08:56:34.348Z,17.78
2022-08-31T08:59:35.913Z,17.77
2022-08-31T09:02:58.327Z,17.66
2022-08-31T09:06:09.667Z,17.62
2022-08-31T09:09:46.881Z,17.78
2022-08-31T09:13:14.408Z,17.77
2022-08-31T09:16:40.860Z,17.59
2022-08-31T09:20:00.340Z,17.55
2022-08-31T09:23:06.986Z,17.74
2022-08-31T09:26:11.158Z,17.95
2022-08-31T09:29:24.789Z,17.91
2022-08-31T09:32:31.365Z,18.04
2022-08-31T09:35:41.224Z,17.87
2022-08-31T09:38:46.914Z,17.97
2022-08-31T09:41:49.890Z,18.15
2022-08-31T09:44:51.505Z,18.24
2022-08-31T09:47:58.272Z,18.38
2022-08-31T09:51:02.864Z,18.28
2022-08-31T09:54:22.836Z,18.13
2022-08-31T09:57:50.474Z,18.34
2022-08-31T10:00:52.613Z,18.30
2022-08-31T10:04:12.147Z,18.74
2022-08-31T10:07:31.323Z,18.62
2022-08-31T10:10:37.631Z,18.64
2022-08-31T10:13:45.807Z,18.79
2022-08-31T10:16:53.177Z,18.85
2022-08-31T10:20:06.600Z,19.22
2022-08-31T10:23:28.134Z,19.29
2022-08-31T10:26:57.016Z,19.29
2022-08-31T10:30:18.253Z,19.47
2022-08-31T10:33:25.261Z,19.68
2022-08-31T10:36:33.112Z,19.71
2022-08-31T10:39:42.606Z,20.05
2022-08-31T10:43:09.299Z,20.26
2022-08-31T10:46:10.830Z,20.90
2022-08-31T10:49:12.311Z,20.62
2022-08-31T10:52:27.482Z,20.81
2022-08-31T10:55:46.793Z,20.98
2022-08-31T10:59:02.080Z,20.95
2022-08-31T11:02:31.277Z,20.40
2022-08-31T11:05:42.199Z,20.43
2022-08-31T11:09:08.273Z,20.60
2022-08-31T11:12:18.370Z,20.58
2022-08-31T11:15:25.912Z,20.19
2022-08-31T11:18:36.128Z,20.35
2022-08-31T11:21:51.002Z,20.38
2022-08-31T11:25:25.036Z,20.31
2022-08-31T11:28:35.743Z,20.19
2022-08-31T11:31:38.867Z,20.28
2022-08-31T11:34:51.337Z,20.39
2022-08-31T11:37:55.648Z,20.34
2022-08-31T11:41:02.770Z,20.39
2022-08-31T11:44:08.972Z,20.31
2022-08-31T11:47:28.650Z,20.29
2022-08-31T11:50:36.403Z,20.48
2022-08-31T11:53:44.362Z,20.61
2022-08-31T11:56:47.416Z,20.80
2022-08-31T11:59:50.498Z,20.77
2022-08-31T12:03:10.882Z,20.73
2022-08-31T12:06:25.088Z,20.96
2022-08-31T12:09:44.985Z,20.87
2022-08-31T12:13:09.326Z,20.93
2022-08-31T12:16:23.674Z,20.82
2022-08-31T12:19:48.865Z,20.95
2022-08-31T12:23:30.852Z,20.91
2022-08-31T12:26:48.812Z,21.01
2022-08-31T12:29:50.303Z,20.88
2022-08-31T12:32:56.804Z,21.09
2022-08-31T12:36:12.144Z,21.07
2022-08-31T12:39:21.849Z,21.39
2022-08-31T12:42:23.736Z,21.13
2022-08-31T12:45:55.061Z,21.46
2022-08-31T12:49:02.710Z,21.46
2022-08-31T12:52:16.230Z,21.35
2022-08-31T12:55:26.811Z,21.61
2022-08-31T12:58:43.503Z,21.79
2022-08-31T13:01:49.318Z,21.56
2022-08-31T13:04:51.305Z,21.80
2022-08-31T13:07:53.536Z,21.73
2022-08-31T13:10:55.049Z,22.08
2022-08-31T13:14:08.512Z,22.08
2022-08-31T13:17:17.873Z,22.00
2022-08-31T13:20:20.421Z,22.13
2022-08-31T13:23:30.009Z,22.02
2022-08-31T13:26:35.880Z,22.09
2022-08-31T13:29:45.110Z,22.42
2022-08-31T13:32:51.052Z,22.80
2022-08-31T13:36:03.753Z,22.86
2022-08-31T13:39:12.845Z,22.77
2022-08-31T13:42:41.262Z,23.07
2022-08-31T13:45:58.548Z,23.38
2022-08-31T13:49:03.225Z,23.34
2022-08-31T13:52:07.762Z,23.60
2022-08-31T13:55:12.877Z,23.71
2022-08-31T13:58:31.463Z,23.41
2022-08-31T14:01:33.858Z,23.64
2022-08-31T14:04:49.508Z,23.68
2022-08-31T14:07:55.623Z,23.74
2022-08-31T14:10:57.152Z,23.59
2022-08-31T14:14:11.343Z,23.36
2022-08-31T14:17:17.700Z,23.43
2022-08-31T14:21:16.902Z,23.21
2022-08-31T14:24:12.298Z,23.51
2022-08-31T14:27:15.205Z,24.09
2022-08-31T14:30:16.755Z,24.23
2022-08-31T14:33:19.752Z,24.27
2022-08-31T14:36:23.688Z,24.25
2022-08-31T14:39:32.082Z,24.41
2022-08-31T14:42:37.353Z,24.88
2022-08-31T14:45:40.015Z,24.79
2022-08-31T14:48:44.115Z,24.61
2022-08-31T14:51:46.276Z,24.52
2022-08-31T14:54:48.070Z,24.25
2022-08-31T14:57:55.543Z,24.23
2022-08-31T15:01:00.260Z,24.36
2022-08-31T15:04:04.240Z,23.88
2022-08-31T15:07:09.526Z,23.75
2022-08-31T15:10:12.968Z,23.66
2022-08-31T15:13:14.578Z,23.70
2022-08-31T15:16:16.854Z,23.71
2022-08-31T15:19:19.004Z,23.59
2022-08-31T15:22:21.574Z,23.64
2022-08-31T15:25:25.853Z,23.71
2022-08-31T15:28:31.565Z,23.49
2022-08-31T15:31:33.074Z,23.60
2022-08-31T15:34:34.869Z,23.72
2022-08-31T15:37:36.379Z,23.53
2022-08-31T15:40:39.248Z,23.55
2022-08-31T15:43:44.310Z,23.53
2022-08-31T15:47:05.143Z,23.48
2022-08-31T15:50:07.733Z,23.51
2022-08-31T15:53:10.684Z,23.50
2022-08-31T15:56:12.243Z,23.43
2022-08-31T15:59:13.794Z,23.46
2022-08-31T16:02:20.281Z,23.42
2022-08-31T16:05:23.826Z,23.39
2022-08-31T16:08:27.865Z,23.46
2022-08-31T16:11:31.139Z,23.43
2022-08-31T16:14:33.401Z,23.25
2022-08-31T16:17:34.900Z,23.19
2022-08-31T16:20:37.049Z,23.19
2022-08-31T16:23:39.628Z,23.21
2022-08-31T16:26:45.946Z,23.02
2022-08-31T16:29:47.532Z,22.79
2022-08-31T16:32:52.186Z,22.84
2022-08-31T16:35:53.943Z,22.78
2022-08-31T16:38:56.628Z,22.89
2022-08-31T16:41:58.158Z,22.82
2022-08-31T16:45:02.331Z,23.31
2022-08-31T16:48:22.770Z,23.21
2022-08-31T16:51:24.382Z,23.25
2022-08-31T16:54:28.437Z,23.49
2022-08-31T16:57:31.795Z,23.45
2022-08-31T17:00:37.368Z,23.37
2022-08-31T17:03:51.992Z,23.46
2022-08-31T17:06:54.337Z,23.55
2022-08-31T17:09:58.980Z,23.63
2022-08-31T17:13:00.476Z,23.57
2022-08-31T17:16:02.632Z,23.59
2022-08-31T17:19:11.369Z,23.45
2022-08-31T17:22:23.375Z,23.50
2022-08-31T17:25:26.228Z,23.43
2022-08-31T17:28:27.679Z,23.09
2022-08-31T17:31:32.965Z,22.84
2022-08-31T17:34:36.727Z,22.54
2022-08-31T17:37:38.501Z,22.34
2022-08-31T17:40:40.134Z,22.12
2022-08-31T17:43:42.119Z,21.83
2022-08-31T17:46:47.137Z,21.61
2022-08-31T17:49:50.571Z,21.47
2022-08-31T17:52:54.002Z,21.20
2022-08-31T17:55:55.829Z,21.33
2022-08-31T17:58:57.350Z,21.36
2022-08-31T18:02:02.639Z,21.23
2022-08-31T18:05:11.583Z,20.69
2022-08-31T18:08:14.670Z,20.54
2022-08-31T18:11:16.242Z,20.51
2022-08-31T18:14:23.486Z,20.29
2022-08-31T18:17:26.446Z,20.27
2022-08-31T18:20:28.394Z,19.99
2022-08-31T18:23:29.832Z,20.00
2022-08-31T18:26:34.800Z,19.83
2022-08-31T18:29:37.917Z,19.70
2022-08-31T18:32:47.287Z,19.44
2022-08-31T18:35:50.617Z,19.48
2022-08-31T18:38:55.196Z,19.22
2022-08-31T18:42:15.578Z,19.20
2022-08-31T18:45:19.219Z,18.96
2022-08-31T18:48:35.125Z,18.97
2022-08-31T18:51:36.865Z,19.14
2022-08-31T18:54:38.420Z,18.98
2022-08-31T18:57:48.770Z,18.84
2022-08-31T19:00:57.262Z,18.85
2022-08-31T19:04:00.922Z,18.78
2022-08-31T19:07:03.656Z,18.75
2022-08-31T19:10:12.127Z,18.54
2022-08-31T19:13:15.471Z,18.61
2022-08-31T19:16:23.353Z,18.56
2022-08-31T19:19:25.416Z,18.38
2022-08-31T19:22:27.925Z,18.43
2022-08-31T19:25:31.818Z,18.32
2022-08-31T19:28:33.361Z,18.45
2022-08-31T19:31:38.496Z,18.18
2022-08-31T19:34:43.107Z,18.22
2022-08-31T19:37:44.635Z,18.13
2022-08-31T19:40:46.469Z,18.18
2022-08-31T19:44:01.925Z,18.03
2022-08-31T19:47:08.564Z,17.84
2022-08-31T19:50:26.343Z,17.92
2022-08-31T19:53:28.232Z,17.88
2022-08-31T19:56:31.027Z,17.88
2022-08-31T19:59:32.557Z,17.95
2022-08-31T20:02:36.167Z,17.81
2022-08-31T20:05:41.748Z,17.88
2022-08-31T20:08:44.257Z,17.90
2022-08-31T20:11:49.296Z,17.74
2022-08-31T20:14:51.273Z,17.81
2022-08-31T20:17:57.114Z,17.74
2022-08-31T20:21:01.026Z,17.60
2022-08-31T20:24:06.242Z,17.60
2022-08-31T20:27:10.446Z,17.56
2022-08-31T20:30:13.603Z,17.70
2022-08-31T20:33:15.772Z,17.83
2022-08-31T20:36:20.495Z,17.78
2022-08-31T20:39:25.123Z,17.66
2022-08-31T20:42:27.328Z,17.77
2022-08-31T20:45:28.790Z,17.50
2022-08-31T20:48:49.076Z,17.51
2022-08-31T20:51:51.702Z,17.41
2022-08-31T20:55:01.465Z,17.51
2022-08-31T20:58:05.522Z,17.40
2022-08-31T21:01:07.747Z,17.40
2022-08-31T21:04:09.369Z,17.50
2022-08-31T21:07:12.278Z,17.42
2022-08-31T21:10:14.361Z,17.27
2022-08-31T21:13:16.736Z,17.45
2022-08-31T21:16:19.491Z,17.49
2022-08-31T21:19:22.751Z,17.23
2022-08-31T21:22:25.788Z,17.42
2022-08-31T21:25:27.364Z,17.48
2022-08-31T21:28:29.604Z,17.43
2022-08-31T21:31:31.228Z,17.37
2022-08-31T21:34:33.786Z,17.36
2022-08-31T21:37:35.402Z,17.63
2022-08-31T21:40:37.053Z,17.71
2022-08-31T21:43:39.808Z,17.71
2022-08-31T21:46:41.588Z,17.80
2022-08-31T21:49:44.528Z,18.06
2022-08-31T21:52:45.972Z,17.88
2022-08-31T21:55:47.421Z,17.82
2022-08-31T21:58:50.001Z,17.92
2022-08-31T22:01:59.008Z,18.52
2022-08-31T22:05:00.689Z,18.67
2022-08-31T22:08:02.465Z,18.69
2022-08-31T22:11:08.868Z,18.88
2022-08-31T22:14:12.236Z,18.94
2022-08-31T22:17:14.675Z,18.78
2022-08-31T22:20:17.662Z,18.66
2022-08-31T22:23:20.141Z,18.76
2022-08-31T22:26:24.414Z,18.94
2022-08-31T22:29:29.242Z,19.01
2022-08-31T22:32:30.652Z,18.60
2022-08-31T22:35:37.823Z,18.45
2022-08-31T22:38:39.764Z,18.77
2022-08-31T22:41:41.654Z,18.72
2022-08-31T22:44:43.623Z,18.44
2022-08-31T22:47:49.774Z,18.48
2022-08-31T22:50:51.780Z,18.48
2022-08-31T22:53:53.284Z,18.31
2022-08-31T22:56:55.202Z,18.52
2022-08-31T22:59:56.699Z,18.52
2022-08-31T23:02:59.242Z,18.25
2022-08-31T23:06:01.381Z,18.25
2022-08-31T23:09:06.873Z,18.23
2022-08-31T23:12:08.716Z,18.21
2022-08-31T23:15:12.804Z,18.37
2022-08-31T23:18:14.292Z,18.28
2022-08-31T23:21:17.917Z,18.25
2022-08-31T23:24:23.654Z,18.21
2022-08-31T23:27:25.338Z,18.11
2022-08-31T23:30:27.195Z,18.06
2022-08-31T23:33:29.345Z,18.04
2022-08-31T23:36:31.821Z,18.02
2022-08-31T23:39:34.702Z,18.02
2022-08-31T23:42:41.032Z,18.11
2022-08-31T23:45:42.679Z,17.90
2022-08-31T23:48:44.103Z,17.86
2022-08-31T23:51:46.194Z,17.91
2022-08-31T23:54:49.825Z,17.88
2022-08-31T23:57:51.698Z,17.94
